Pagrindinis puslapis
METAR-TAF:

METAR-TAF

Oro uostai :

Puerto Natalesas, Čilė

platuma: 51-40-15S, ilguma: 072-31-42W, Aukštis: 66 m

Dabartinis oras

Ataskaita buvo paskelbta 7 valandos ir 38 minutes, ne 21:00 UTC
Vėjas 22 kt iš Vakarų
Temperatūra 9°C
Drėgmė 49%
Slėgis 1002 hPa
Matomumas 10 km arba daugiau
Išsisklaidę debesys ne aukštis 5000 ft

METAR: SCNT 212100Z 27022KT 9999 SCT050 09/M01 Q1002

Laikas: 00:38 (04:38 UTC)

Prognozė

Ataskaita buvo paskelbta 18 valandos ir 8 minutes, ne 10:30 UTC
Prognozė galioja nuo 21 metu 12 UTC su 22 metu 00 UTC
Vėjas 15 kt iš Vakarų/Šiaurės Vakarų su gūsio iki 31 kt
Matomumas 10 km arba daugiau
Išsisklaidę debesys ne aukštis 2000 ft
Laikinai
nuo 21 metu 12 UTC su 21 metu 16 UTC
Matomumas: 7000 m
Išsisklaidę debesys ne aukštis 1200 ft
Su prošvaistėmis ne aukštis 2000 ft
lietus
Tapsmas
nuo 21 metu 16 UTC su 21 metu 18 UTC
Išsisklaidę debesys ne aukštis 2500 ft

TAF: SCNT 211030Z 2112/2200 29015G31KT 9999 SCT020 TN07/2112Z TX09/2118Z TEMPO 2112/2116 7000 SHRA SCT012 BKN020 BECMG 2116/2118 SCT025

Orai ataskaitas ir orų prognozės (METAR, TAF).

turimą stotys yra geltonos ir raudonos taškus žemėlapyje.

Perkelti pele per norėdami pamatyti stoties vardą.

Tada spustelėkite, norėdami matyti oro stebėjimo ir prognozės.

Norėdami pakeisti žemėlapį: spustelėkite ant žalios mygtukų su juodo kryžiaus žemyn,; žalią mygtuką su brūkšneliu, jei norite nutolinti; arba žalių rodyklių gretimoms žemėlapius.


METAR-TAF: